sensor_id;sensor_type;location;lat;lon;timestamp;P1;P2;P0
37290;PMS5003;23175;-33.706;151.094;2022-12-17T00:00:39;1;1;
37290;PMS5003;23175;-33.706;151.094;2022-12-17T00:03:09;2;0;
37290;PMS5003;23175;-33.706;151.094;2022-12-17T00:05:39;0;0;
37290;PMS5003;23175;-33.706;151.094;2022-12-17T00:08:10;1;1;
37290;PMS5003;23175;-33.706;151.094;2022-12-17T00:10:40;1;1;
37290;PMS5003;23175;-33.706;151.094;2022-12-17T00:13:17;1;1;
37290;PMS5003;23175;-33.706;151.094;2022-12-17T00:15:50;1;1;
37290;PMS5003;23175;-33.706;151.094;2022-12-17T00:18:20;3;1;
37290;PMS5003;23175;-33.706;151.094;2022-12-17T00:20:52;6;1;
37290;PMS5003;23175;-33.706;151.094;2022-12-17T00:23:23;0;0;
37290;PMS5003;23175;-33.706;151.094;2022-12-17T00:25:54;6;3;
37290;PMS5003;23175;-33.706;151.094;2022-12-17T00:28:24;7;5;
37290;PMS5003;23175;-33.706;151.094;2022-12-17T00:30:54;13;10;
37290;PMS5003;23175;-33.706;151.094;2022-12-17T00:33:24;10;5;
37290;PMS5003;23175;-33.706;151.094;2022-12-17T00:35:55;5;5;
37290;PMS5003;23175;-33.706;151.094;2022-12-17T00:38:25;7;4;
37290;PMS5003;23175;-33.706;151.094;2022-12-17T00:40:55;0;0;
37290;PMS5003;23175;-33.706;151.094;2022-12-17T00:43:25;2;0;
37290;PMS5003;23175;-33.706;151.094;2022-12-17T00:45:56;5;2;
37290;PMS5003;23175;-33.706;151.094;2022-12-17T00:48:26;2;2;
37290;PMS5003;23175;-33.706;151.094;2022-12-17T00:50:56;1;1;
37290;PMS5003;23175;-33.706;151.094;2022-12-17T00:53:26;3;1;
37290;PMS5003;23175;-33.706;151.094;2022-12-17T00:55:57;2;2;
37290;PMS5003;23175;-33.706;151.094;2022-12-17T00:58:27;1;1;
37290;PMS5003;23175;-33.706;151.094;2022-12-17T01:00:58;1;1;
37290;PMS5003;23175;-33.706;151.094;2022-12-17T01:03:29;4;0;
37290;PMS5003;23175;-33.706;151.094;2022-12-17T01:06:00;3;1;
37290;PMS5003;23175;-33.706;151.094;2022-12-17T01:08:31;1;1;
37290;PMS5003;23175;-33.706;151.094;2022-12-17T01:11:02;2;2;
37290;PMS5003;23175;-33.706;151.094;2022-12-17T01:13:33;1;0;
37290;PMS5003;23175;-33.706;151.094;2022-12-17T01:16:04;5;3;
37290;PMS5003;23175;-33.706;151.094;2022-12-17T01:18:36;1;1;
37290;PMS5003;23175;-33.706;151.094;2022-12-17T01:21:06;2;1;
37290;PMS5003;23175;-33.706;151.094;2022-12-17T01:23:37;2;2;
37290;PMS5003;23175;-33.706;151.094;2022-12-17T01:26:07;2;2;
37290;PMS5003;23175;-33.706;151.094;2022-12-17T01:28:36;6;3;
37290;PMS5003;23175;-33.706;151.094;2022-12-17T01:31:07;2;2;
37290;PMS5003;23175;-33.706;151.094;2022-12-17T01:33:37;5;2;
37290;PMS5003;23175;-33.706;151.094;2022-12-17T01:36:08;5;2;
37290;PMS5003;23175;-33.706;151.094;2022-12-17T01:38:38;3;2;
37290;PMS5003;23175;-33.706;151.094;2022-12-17T01:41:08;5;2;
37290;PMS5003;23175;-33.706;151.094;2022-12-17T01:43:39;10;3;
37290;PMS5003;23175;-33.706;151.094;2022-12-17T01:46:09;5;2;
37290;PMS5003;23175;-33.706;151.094;2022-12-17T01:48:40;3;3;
37290;PMS5003;23175;-33.706;151.094;2022-12-17T01:51:14;2;0;
37290;PMS5003;23175;-33.706;151.094;2022-12-17T01:53:45;3;3;
37290;PMS5003;23175;-33.706;151.094;2022-12-17T01:56:19;3;3;
37290;PMS5003;23175;-33.706;151.094;2022-12-17T01:58:50;5;2;
37290;PMS5003;23175;-33.706;151.094;2022-12-17T02:01:20;6;2;
37290;PMS5003;23175;-33.706;151.094;2022-12-17T02:03:50;2;1;
37290;PMS5003;23175;-33.706;151.094;2022-12-17T02:06:22;3;2;
37290;PMS5003;23175;-33.706;151.094;2022-12-17T02:08:59;2;1;
37290;PMS5003;23175;-33.706;151.094;2022-12-17T02:11:35;3;1;
37290;PMS5003;23175;-33.706;151.094;2022-12-17T02:14:12;5;3;
37290;PMS5003;23175;-33.706;151.094;2022-12-17T02:16:49;3;3;
37290;PMS5003;23175;-33.706;151.094;2022-12-17T02:19:28;2;1;
37290;PMS5003;23175;-33.706;151.094;2022-12-17T02:22:08;8;2;
37290;PMS5003;23175;-33.706;151.094;2022-12-17T02:24:52;9;4;
37290;PMS5003;23175;-33.706;151.094;2022-12-17T02:27:27;10;3;
37290;PMS5003;23175;-33.706;151.094;2022-12-17T02:29:59;3;1;
37290;PMS5003;23175;-33.706;151.094;2022-12-17T02:32:34;4;3;
37290;PMS5003;23175;-33.706;151.094;2022-12-17T02:35:09;4;3;
37290;PMS5003;23175;-33.706;151.094;2022-12-17T02:37:45;8;5;
37290;PMS5003;23175;-33.706;151.094;2022-12-17T02:40:17;5;3;
37290;PMS5003;23175;-33.706;151.094;2022-12-17T02:42:49;5;2;
37290;PMS5003;23175;-33.706;151.094;2022-12-17T02:45:19;2;1;
37290;PMS5003;23175;-33.706;151.094;2022-12-17T02:47:51;1;1;
37290;PMS5003;23175;-33.706;151.094;2022-12-17T02:50:21;1;1;
37290;PMS5003;23175;-33.706;151.094;2022-12-17T02:52:51;0;0;
37290;PMS5003;23175;-33.706;151.094;2022-12-17T02:55:22;4;2;
37290;PMS5003;23175;-33.706;151.094;2022-12-17T02:57:52;4;2;
37290;PMS5003;23175;-33.706;151.094;2022-12-17T03:00:22;1;1;
37290;PMS5003;23175;-33.706;151.094;2022-12-17T03:02:53;2;2;
37290;PMS5003;23175;-33.706;151.094;2022-12-17T03:05:23;3;1;
37290;PMS5003;23175;-33.706;151.094;2022-12-17T03:07:53;2;2;
37290;PMS5003;23175;-33.706;151.094;2022-12-17T03:10:23;5;2;
37290;PMS5003;23175;-33.706;151.094;2022-12-17T03:12:53;2;2;
37290;PMS5003;23175;-33.706;151.094;2022-12-17T03:15:23;2;1;
37290;PMS5003;23175;-33.706;151.094;2022-12-17T03:17:54;1;1;
37290;PMS5003;23175;-33.706;151.094;2022-12-17T03:20:24;4;2;
37290;PMS5003;23175;-33.706;151.094;2022-12-17T03:23:00;6;6;
37290;PMS5003;23175;-33.706;151.094;2022-12-17T03:25:31;2;1;
37290;PMS5003;23175;-33.706;151.094;2022-12-17T03:28:03;1;1;
37290;PMS5003;23175;-33.706;151.094;2022-12-17T03:30:34;8;4;
37290;PMS5003;23175;-33.706;151.094;2022-12-17T03:33:07;2;2;
37290;PMS5003;23175;-33.706;151.094;2022-12-17T03:35:37;1;1;
37290;PMS5003;23175;-33.706;151.094;2022-12-17T03:38:07;5;3;
37290;PMS5003;23175;-33.706;151.094;2022-12-17T03:40:38;7;3;
37290;PMS5003;23175;-33.706;151.094;2022-12-17T03:43:08;1;1;
37290;PMS5003;23175;-33.706;151.094;2022-12-17T03:45:38;7;4;
37290;PMS5003;23175;-33.706;151.094;2022-12-17T03:48:09;4;2;
37290;PMS5003;23175;-33.706;151.094;2022-12-17T03:50:40;6;1;
37290;PMS5003;23175;-33.706;151.094;2022-12-17T03:53:10;4;3;
37290;PMS5003;23175;-33.706;151.094;2022-12-17T03:55:40;4;3;
37290;PMS5003;23175;-33.706;151.094;2022-12-17T03:58:11;1;1;
37290;PMS5003;23175;-33.706;151.094;2022-12-17T04:00:41;2;2;
37290;PMS5003;23175;-33.706;151.094;2022-12-17T04:03:11;2;2;
37290;PMS5003;23175;-33.706;151.094;2022-12-17T04:05:41;1;0;
37290;PMS5003;23175;-33.706;151.094;2022-12-17T04:08:11;1;1;
37290;PMS5003;23175;-33.706;151.094;2022-12-17T04:10:41;3;2;
37290;PMS5003;23175;-33.706;151.094;2022-12-17T04:13:12;5;1;
37290;PMS5003;23175;-33.706;151.094;2022-12-17T04:15:43;3;2;
37290;PMS5003;23175;-33.706;151.094;2022-12-17T04:18:13;24;19;
37290;PMS5003;23175;-33.706;151.094;2022-12-17T04:20:43;5;2;
37290;PMS5003;23175;-33.706;151.094;2022-12-17T04:23:13;7;4;
37290;PMS5003;23175;-33.706;151.094;2022-12-17T04:25:43;12;7;
37290;PMS5003;23175;-33.706;151.094;2022-12-17T04:28:13;4;4;
37290;PMS5003;23175;-33.706;151.094;2022-12-17T04:30:43;8;6;
37290;PMS5003;23175;-33.706;151.094;2022-12-17T04:33:13;2;0;
37290;PMS5003;23175;-33.706;151.094;2022-12-17T04:35:44;0;0;
37290;PMS5003;23175;-33.706;151.094;2022-12-17T04:38:14;2;2;
37290;PMS5003;23175;-33.706;151.094;2022-12-17T04:40:44;3;2;
37290;PMS5003;23175;-33.706;151.094;2022-12-17T04:43:14;7;4;
37290;PMS5003;23175;-33.706;151.094;2022-12-17T04:45:47;3;1;
37290;PMS5003;23175;-33.706;151.094;2022-12-17T04:48:19;2;1;
37290;PMS5003;23175;-33.706;151.094;2022-12-17T04:50:51;1;1;
37290;PMS5003;23175;-33.706;151.094;2022-12-17T04:53:21;3;2;
37290;PMS5003;23175;-33.706;151.094;2022-12-17T04:55:52;7;2;
37290;PMS5003;23175;-33.706;151.094;2022-12-17T04:58:23;4;1;
37290;PMS5003;23175;-33.706;151.094;2022-12-17T05:00:53;3;2;
37290;PMS5003;23175;-33.706;151.094;2022-12-17T05:03:24;3;1;
37290;PMS5003;23175;-33.706;151.094;2022-12-17T05:05:54;6;4;
37290;PMS5003;23175;-33.706;151.094;2022-12-17T05:08:24;6;5;
37290;PMS5003;23175;-33.706;151.094;2022-12-17T05:10:54;3;1;
37290;PMS5003;23175;-33.706;151.094;2022-12-17T05:13:30;3;2;
37290;PMS5003;23175;-33.706;151.094;2022-12-17T05:16:00;3;2;
37290;PMS5003;23175;-33.706;151.094;2022-12-17T05:18:30;6;2;
37290;PMS5003;23175;-33.706;151.094;2022-12-17T05:21:01;7;2;
37290;PMS5003;23175;-33.706;151.094;2022-12-17T05:23:31;7;2;
37290;PMS5003;23175;-33.706;151.094;2022-12-17T05:26:02;2;2;
37290;PMS5003;23175;-33.706;151.094;2022-12-17T05:28:33;2;2;
37290;PMS5003;23175;-33.706;151.094;2022-12-17T05:31:03;3;1;
37290;PMS5003;23175;-33.706;151.094;2022-12-17T05:33:33;1;1;
37290;PMS5003;23175;-33.706;151.094;2022-12-17T05:36:04;2;1;
37290;PMS5003;23175;-33.706;151.094;2022-12-17T05:38:34;4;1;
37290;PMS5003;23175;-33.706;151.094;2022-12-17T05:41:04;4;2;
37290;PMS5003;23175;-33.706;151.094;2022-12-17T05:43:35;5;3;
37290;PMS5003;23175;-33.706;151.094;2022-12-17T05:46:05;5;2;
37290;PMS5003;23175;-33.706;151.094;2022-12-17T05:48:35;6;2;
37290;PMS5003;23175;-33.706;151.094;2022-12-17T05:51:05;4;3;
37290;PMS5003;23175;-33.706;151.094;2022-12-17T05:53:35;9;1;
37290;PMS5003;23175;-33.706;151.094;2022-12-17T05:56:05;5;2;
37290;PMS5003;23175;-33.706;151.094;2022-12-17T05:58:35;3;2;
37290;PMS5003;23175;-33.706;151.094;2022-12-17T06:01:06;5;1;
37290;PMS5003;23175;-33.706;151.094;2022-12-17T06:03:36;2;1;
37290;PMS5003;23175;-33.706;151.094;2022-12-17T06:06:06;4;2;
37290;PMS5003;23175;-33.706;151.094;2022-12-17T06:08:36;1;1;
37290;PMS5003;23175;-33.706;151.094;2022-12-17T06:11:06;1;1;
37290;PMS5003;23175;-33.706;151.094;2022-12-17T06:13:37;1;1;
37290;PMS5003;23175;-33.706;151.094;2022-12-17T06:16:07;3;1;
37290;PMS5003;23175;-33.706;151.094;2022-12-17T06:18:38;0;0;
37290;PMS5003;23175;-33.706;151.094;2022-12-17T06:21:08;2;1;
37290;PMS5003;23175;-33.706;151.094;2022-12-17T06:23:38;3;0;
37290;PMS5003;23175;-33.706;151.094;2022-12-17T06:26:08;0;0;
37290;PMS5003;23175;-33.706;151.094;2022-12-17T06:28:39;0;0;
37290;PMS5003;23175;-33.706;151.094;2022-12-17T06:31:09;1;0;
37290;PMS5003;23175;-33.706;151.094;2022-12-17T06:33:39;1;1;
37290;PMS5003;23175;-33.706;151.094;2022-12-17T06:36:09;1;1;
37290;PMS5003;23175;-33.706;151.094;2022-12-17T06:38:40;3;1;
37290;PMS5003;23175;-33.706;151.094;2022-12-17T06:41:10;2;0;
37290;PMS5003;23175;-33.706;151.094;2022-12-17T06:43:41;2;1;
37290;PMS5003;23175;-33.706;151.094;2022-12-17T06:46:11;0;0;
37290;PMS5003;23175;-33.706;151.094;2022-12-17T06:48:41;0;0;
37290;PMS5003;23175;-33.706;151.094;2022-12-17T06:51:11;2;1;
37290;PMS5003;23175;-33.706;151.094;2022-12-17T06:53:42;4;1;
37290;PMS5003;23175;-33.706;151.094;2022-12-17T06:56:16;3;0;
37290;PMS5003;23175;-33.706;151.094;2022-12-17T06:58:46;1;0;
37290;PMS5003;23175;-33.706;151.094;2022-12-17T07:01:16;3;1;
37290;PMS5003;23175;-33.706;151.094;2022-12-17T07:03:47;0;0;
37290;PMS5003;23175;-33.706;151.094;2022-12-17T07:06:17;2;1;
37290;PMS5003;23175;-33.706;151.094;2022-12-17T07:08:47;2;1;
37290;PMS5003;23175;-33.706;151.094;2022-12-17T07:11:17;4;1;
37290;PMS5003;23175;-33.706;151.094;2022-12-17T07:13:48;5;0;
37290;PMS5003;23175;-33.706;151.094;2022-12-17T07:16:18;5;4;
37290;PMS5003;23175;-33.706;151.094;2022-12-17T07:18:49;5;3;
37290;PMS5003;23175;-33.706;151.094;2022-12-17T07:21:19;5;2;
37290;PMS5003;23175;-33.706;151.094;2022-12-17T07:23:50;2;0;
37290;PMS5003;23175;-33.706;151.094;2022-12-17T07:26:20;3;1;
37290;PMS5003;23175;-33.706;151.094;2022-12-17T07:28:50;3;1;
37290;PMS5003;23175;-33.706;151.094;2022-12-17T07:31:21;3;2;
37290;PMS5003;23175;-33.706;151.094;2022-12-17T07:33:51;3;0;
37290;PMS5003;23175;-33.706;151.094;2022-12-17T07:36:21;6;1;
37290;PMS5003;23175;-33.706;151.094;2022-12-17T07:38:51;4;2;
37290;PMS5003;23175;-33.706;151.094;2022-12-17T07:41:21;3;2;
37290;PMS5003;23175;-33.706;151.094;2022-12-17T07:43:52;4;2;
37290;PMS5003;23175;-33.706;151.094;2022-12-17T07:46:22;1;1;
37290;PMS5003;23175;-33.706;151.094;2022-12-17T07:48:52;2;1;
37290;PMS5003;23175;-33.706;151.094;2022-12-17T07:51:22;2;2;
37290;PMS5003;23175;-33.706;151.094;2022-12-17T07:53:53;5;2;
37290;PMS5003;23175;-33.706;151.094;2022-12-17T07:56:23;3;0;
37290;PMS5003;23175;-33.706;151.094;2022-12-17T07:58:53;2;2;
37290;PMS5003;23175;-33.706;151.094;2022-12-17T08:01:23;0;0;
37290;PMS5003;23175;-33.706;151.094;2022-12-17T08:03:54;4;1;
37290;PMS5003;23175;-33.706;151.094;2022-12-17T08:06:24;1;1;
37290;PMS5003;23175;-33.706;151.094;2022-12-17T08:08:54;3;1;
37290;PMS5003;23175;-33.706;151.094;2022-12-17T08:11:24;4;1;
37290;PMS5003;23175;-33.706;151.094;2022-12-17T08:13:54;1;1;
37290;PMS5003;23175;-33.706;151.094;2022-12-17T08:16:25;3;1;
37290;PMS5003;23175;-33.706;151.094;2022-12-17T08:18:55;0;0;
37290;PMS5003;23175;-33.706;151.094;2022-12-17T08:21:25;2;1;
37290;PMS5003;23175;-33.706;151.094;2022-12-17T08:23:55;2;0;
37290;PMS5003;23175;-33.706;151.094;2022-12-17T08:26:26;2;2;
37290;PMS5003;23175;-33.706;151.094;2022-12-17T08:28:56;0;0;
37290;PMS5003;23175;-33.706;151.094;2022-12-17T08:31:27;1;1;
37290;PMS5003;23175;-33.706;151.094;2022-12-17T08:33:56;2;2;
37290;PMS5003;23175;-33.706;151.094;2022-12-17T08:36:27;2;0;
37290;PMS5003;23175;-33.706;151.094;2022-12-17T08:38:57;3;2;
37290;PMS5003;23175;-33.706;151.094;2022-12-17T08:41:27;1;1;
37290;PMS5003;23175;-33.706;151.094;2022-12-17T08:43:58;1;1;
37290;PMS5003;23175;-33.706;151.094;2022-12-17T08:46:28;3;1;
37290;PMS5003;23175;-33.706;151.094;2022-12-17T08:48:58;1;1;
37290;PMS5003;23175;-33.706;151.094;2022-12-17T08:51:28;8;2;
37290;PMS5003;23175;-33.706;151.094;2022-12-17T08:53:58;3;1;
37290;PMS5003;23175;-33.706;151.094;2022-12-17T08:56:29;2;2;
37290;PMS5003;23175;-33.706;151.094;2022-12-17T08:58:59;7;2;
37290;PMS5003;23175;-33.706;151.094;2022-12-17T09:01:29;2;2;
37290;PMS5003;23175;-33.706;151.094;2022-12-17T09:03:59;2;0;
37290;PMS5003;23175;-33.706;151.094;2022-12-17T09:06:30;2;2;
37290;PMS5003;23175;-33.706;151.094;2022-12-17T09:09:00;4;1;
37290;PMS5003;23175;-33.706;151.094;2022-12-17T09:11:30;7;3;
37290;PMS5003;23175;-33.706;151.094;2022-12-17T09:14:00;4;4;
37290;PMS5003;23175;-33.706;151.094;2022-12-17T09:16:31;7;3;
37290;PMS5003;23175;-33.706;151.094;2022-12-17T09:19:01;2;2;
37290;PMS5003;23175;-33.706;151.094;2022-12-17T09:21:31;8;3;
37290;PMS5003;23175;-33.706;151.094;2022-12-17T09:24:01;8;3;
37290;PMS5003;23175;-33.706;151.094;2022-12-17T09:26:32;9;4;
37290;PMS5003;23175;-33.706;151.094;2022-12-17T09:29:02;4;3;
37290;PMS5003;23175;-33.706;151.094;2022-12-17T09:31:32;7;3;
37290;PMS5003;23175;-33.706;151.094;2022-12-17T09:34:02;5;2;
37290;PMS5003;23175;-33.706;151.094;2022-12-17T09:36:33;2;2;
37290;PMS5003;23175;-33.706;151.094;2022-12-17T09:39:03;4;3;
37290;PMS5003;23175;-33.706;151.094;2022-12-17T09:41:36;2;1;
37290;PMS5003;23175;-33.706;151.094;2022-12-17T09:44:16;4;2;
37290;PMS5003;23175;-33.706;151.094;2022-12-17T09:46:56;7;4;
37290;PMS5003;23175;-33.706;151.094;2022-12-17T09:49:30;3;3;
37290;PMS5003;23175;-33.706;151.094;2022-12-17T09:52:01;3;3;
37290;PMS5003;23175;-33.706;151.094;2022-12-17T09:54:42;6;1;
37290;PMS5003;23175;-33.706;151.094;2022-12-17T09:57:18;6;3;
37290;PMS5003;23175;-33.706;151.094;2022-12-17T09:59:52;5;3;
37290;PMS5003;23175;-33.706;151.094;2022-12-17T10:02:23;3;1;
37290;PMS5003;23175;-33.706;151.094;2022-12-17T10:04:57;6;3;
37290;PMS5003;23175;-33.706;151.094;2022-12-17T10:07:31;8;4;
37290;PMS5003;23175;-33.706;151.094;2022-12-17T10:10:12;7;4;
37290;PMS5003;23175;-33.706;151.094;2022-12-17T10:12:45;5;2;
37290;PMS5003;23175;-33.706;151.094;2022-12-17T10:15:15;9;5;
37290;PMS5003;23175;-33.706;151.094;2022-12-17T10:17:45;5;2;
37290;PMS5003;23175;-33.706;151.094;2022-12-17T10:20:17;3;1;
37290;PMS5003;23175;-33.706;151.094;2022-12-17T10:22:51;2;2;
37290;PMS5003;23175;-33.706;151.094;2022-12-17T10:25:22;2;2;
37290;PMS5003;23175;-33.706;151.094;2022-12-17T10:27:52;2;1;
37290;PMS5003;23175;-33.706;151.094;2022-12-17T10:30:27;6;3;
37290;PMS5003;23175;-33.706;151.094;2022-12-17T10:32:57;11;7;
37290;PMS5003;23175;-33.706;151.094;2022-12-17T10:39:16;4;3;
37290;PMS5003;23175;-33.706;151.094;2022-12-17T10:41:49;8;7;
37290;PMS5003;23175;-33.706;151.094;2022-12-17T10:44:20;5;3;
37290;PMS5003;23175;-33.706;151.094;2022-12-17T10:46:55;3;3;
37290;PMS5003;23175;-33.706;151.094;2022-12-17T10:49:26;3;2;
37290;PMS5003;23175;-33.706;151.094;2022-12-17T10:52:04;9;2;
37290;PMS5003;23175;-33.706;151.094;2022-12-17T10:54:53;7;3;
37290;PMS5003;23175;-33.706;151.094;2022-12-17T10:57:28;3;3;
37290;PMS5003;23175;-33.706;151.094;2022-12-17T11:00:00;9;5;
37290;PMS5003;23175;-33.706;151.094;2022-12-17T11:02:44;18;16;
37290;PMS5003;23175;-33.706;151.094;2022-12-17T11:05:23;21;16;
37290;PMS5003;23175;-33.706;151.094;2022-12-17T11:07:55;22;19;
37290;PMS5003;23175;-33.706;151.094;2022-12-17T11:10:28;27;22;
37290;PMS5003;23175;-33.706;151.094;2022-12-17T11:13:04;40;39;
37290;PMS5003;23175;-33.706;151.094;2022-12-17T11:15:41;35;33;
37290;PMS5003;23175;-33.706;151.094;2022-12-17T11:18:16;8;6;
37290;PMS5003;23175;-33.706;151.094;2022-12-17T11:20:49;8;4;
37290;PMS5003;23175;-33.706;151.094;2022-12-17T11:23:26;11;9;
37290;PMS5003;23175;-33.706;151.094;2022-12-17T11:25:56;20;16;
37290;PMS5003;23175;-33.706;151.094;2022-12-17T11:28:34;36;29;
37290;PMS5003;23175;-33.706;151.094;2022-12-17T11:31:20;39;39;
37290;PMS5003;23175;-33.706;151.094;2022-12-17T11:34:01;18;18;
37290;PMS5003;23175;-33.706;151.094;2022-12-17T11:36:41;24;23;
37290;PMS5003;23175;-33.706;151.094;2022-12-17T11:39:18;23;22;
37290;PMS5003;23175;-33.706;151.094;2022-12-17T11:41:55;19;19;
37290;PMS5003;23175;-33.706;151.094;2022-12-17T11:44:34;28;27;
37290;PMS5003;23175;-33.706;151.094;2022-12-17T11:47:13;27;24;
37290;PMS5003;23175;-33.706;151.094;2022-12-17T11:49:54;23;18;
37290;PMS5003;23175;-33.706;151.094;2022-12-17T11:52:36;4;2;
37290;PMS5003;23175;-33.706;151.094;2022-12-17T11:55:18;41;38;
37290;PMS5003;23175;-33.706;151.094;2022-12-17T11:57:54;4;1;
37290;PMS5003;23175;-33.706;151.094;2022-12-17T12:00:31;29;29;
37290;PMS5003;23175;-33.706;151.094;2022-12-17T12:03:13;21;18;
37290;PMS5003;23175;-33.706;151.094;2022-12-17T12:05:52;23;22;
37290;PMS5003;23175;-33.706;151.094;2022-12-17T12:08:26;27;26;
37290;PMS5003;23175;-33.706;151.094;2022-12-17T12:11:00;2;2;
37290;PMS5003;23175;-33.706;151.094;2022-12-17T12:13:39;3;3;
37290;PMS5003;23175;-33.706;151.094;2022-12-17T12:16:16;1;1;
37290;PMS5003;23175;-33.706;151.094;2022-12-17T12:18:54;2;0;
37290;PMS5003;23175;-33.706;151.094;2022-12-17T12:21:37;3;2;
37290;PMS5003;23175;-33.706;151.094;2022-12-17T12:24:16;3;3;
37290;PMS5003;23175;-33.706;151.094;2022-12-17T12:27:03;7;3;
37290;PMS5003;23175;-33.706;151.094;2022-12-17T12:29:41;30;28;
37290;PMS5003;23175;-33.706;151.094;2022-12-17T12:32:21;5;3;
37290;PMS5003;23175;-33.706;151.094;2022-12-17T12:34:58;8;4;
37290;PMS5003;23175;-33.706;151.094;2022-12-17T12:37:30;4;2;
37290;PMS5003;23175;-33.706;151.094;2022-12-17T12:40:03;6;2;
37290;PMS5003;23175;-33.706;151.094;2022-12-17T12:42:42;21;19;
37290;PMS5003;23175;-33.706;151.094;2022-12-17T12:45:24;37;35;
37290;PMS5003;23175;-33.706;151.094;2022-12-17T12:48:05;24;19;
37290;PMS5003;23175;-33.706;151.094;2022-12-17T12:50:47;13;12;
37290;PMS5003;23175;-33.706;151.094;2022-12-17T12:53:22;4;3;
37290;PMS5003;23175;-33.706;151.094;2022-12-17T12:55:52;7;2;
37290;PMS5003;23175;-33.706;151.094;2022-12-17T12:58:25;30;29;
37290;PMS5003;23175;-33.706;151.094;2022-12-17T13:00:56;33;29;
37290;PMS5003;23175;-33.706;151.094;2022-12-17T13:03:28;20;14;
37290;PMS5003;23175;-33.706;151.094;2022-12-17T13:06:00;25;25;
37290;PMS5003;23175;-33.706;151.094;2022-12-17T13:08:30;24;18;
37290;PMS5003;23175;-33.706;151.094;2022-12-17T13:11:09;29;26;
37290;PMS5003;23175;-33.706;151.094;2022-12-17T13:13:54;13;6;
37290;PMS5003;23175;-33.706;151.094;2022-12-17T13:16:36;4;2;
37290;PMS5003;23175;-33.706;151.094;2022-12-17T13:19:19;6;3;
37290;PMS5003;23175;-33.706;151.094;2022-12-17T13:22:33;3;3;
37290;PMS5003;23175;-33.706;151.094;2022-12-17T13:25:15;5;2;
37290;PMS5003;23175;-33.706;151.094;2022-12-17T13:27:46;5;2;
37290;PMS5003;23175;-33.706;151.094;2022-12-17T13:30:22;4;3;
37290;PMS5003;23175;-33.706;151.094;2022-12-17T13:33:23;3;3;
37290;PMS5003;23175;-33.706;151.094;2022-12-17T13:36:03;6;2;
37290;PMS5003;23175;-33.706;151.094;2022-12-17T13:38:42;5;5;
37290;PMS5003;23175;-33.706;151.094;2022-12-17T13:41:20;5;3;
37290;PMS5003;23175;-33.706;151.094;2022-12-17T13:43:57;10;4;
37290;PMS5003;23175;-33.706;151.094;2022-12-17T13:46:39;5;2;
37290;PMS5003;23175;-33.706;151.094;2022-12-17T13:49:15;2;2;
37290;PMS5003;23175;-33.706;151.094;2022-12-17T13:51:46;6;3;
37290;PMS5003;23175;-33.706;151.094;2022-12-17T13:54:27;6;3;
37290;PMS5003;23175;-33.706;151.094;2022-12-17T13:57:05;5;2;
37290;PMS5003;23175;-33.706;151.094;2022-12-17T13:59:37;2;2;
37290;PMS5003;23175;-33.706;151.094;2022-12-17T14:02:20;3;2;
37290;PMS5003;23175;-33.706;151.094;2022-12-17T14:04:54;5;2;
37290;PMS5003;23175;-33.706;151.094;2022-12-17T14:07:26;4;2;
37290;PMS5003;23175;-33.706;151.094;2022-12-17T14:09:57;1;1;
37290;PMS5003;23175;-33.706;151.094;2022-12-17T14:12:29;2;1;
37290;PMS5003;23175;-33.706;151.094;2022-12-17T14:15:00;1;1;
37290;PMS5003;23175;-33.706;151.094;2022-12-17T14:17:36;2;2;
37290;PMS5003;23175;-33.706;151.094;2022-12-17T14:20:11;2;1;
37290;PMS5003;23175;-33.706;151.094;2022-12-17T14:22:44;3;2;
37290;PMS5003;23175;-33.706;151.094;2022-12-17T14:25:17;4;1;
37290;PMS5003;23175;-33.706;151.094;2022-12-17T14:27:51;4;2;
37290;PMS5003;23175;-33.706;151.094;2022-12-17T14:30:24;3;1;
37290;PMS5003;23175;-33.706;151.094;2022-12-17T14:33:03;1;1;
37290;PMS5003;23175;-33.706;151.094;2022-12-17T14:35:52;2;2;
37290;PMS5003;23175;-33.706;151.094;2022-12-17T14:38:23;2;2;
37290;PMS5003;23175;-33.706;151.094;2022-12-17T14:40:54;3;2;
37290;PMS5003;23175;-33.706;151.094;2022-12-17T14:43:32;4;2;
37290;PMS5003;23175;-33.706;151.094;2022-12-17T14:46:02;8;1;
37290;PMS5003;23175;-33.706;151.094;2022-12-17T14:48:32;5;2;
37290;PMS5003;23175;-33.706;151.094;2022-12-17T14:51:04;1;1;
37290;PMS5003;23175;-33.706;151.094;2022-12-17T14:53:47;0;0;
37290;PMS5003;23175;-33.706;151.094;2022-12-17T14:56:21;3;0;
37290;PMS5003;23175;-33.706;151.094;2022-12-17T14:58:51;3;2;
37290;PMS5003;23175;-33.706;151.094;2022-12-17T15:01:21;2;2;
37290;PMS5003;23175;-33.706;151.094;2022-12-17T15:03:51;2;2;
37290;PMS5003;23175;-33.706;151.094;2022-12-17T15:06:22;1;1;
37290;PMS5003;23175;-33.706;151.094;2022-12-17T15:08:52;4;3;
37290;PMS5003;23175;-33.706;151.094;2022-12-17T15:11:22;1;1;
37290;PMS5003;23175;-33.706;151.094;2022-12-17T15:13:53;2;2;
37290;PMS5003;23175;-33.706;151.094;2022-12-17T15:16:23;2;2;
37290;PMS5003;23175;-33.706;151.094;2022-12-17T15:18:53;4;1;
37290;PMS5003;23175;-33.706;151.094;2022-12-17T15:21:24;2;1;
37290;PMS5003;23175;-33.706;151.094;2022-12-17T15:23:54;6;2;
37290;PMS5003;23175;-33.706;151.094;2022-12-17T15:26:24;0;0;
37290;PMS5003;23175;-33.706;151.094;2022-12-17T15:28:54;3;1;
37290;PMS5003;23175;-33.706;151.094;2022-12-17T15:31:25;2;1;
37290;PMS5003;23175;-33.706;151.094;2022-12-17T15:33:55;1;1;
37290;PMS5003;23175;-33.706;151.094;2022-12-17T15:36:25;2;1;
37290;PMS5003;23175;-33.706;151.094;2022-12-17T15:38:56;0;0;
37290;PMS5003;23175;-33.706;151.094;2022-12-17T15:41:26;3;2;
37290;PMS5003;23175;-33.706;151.094;2022-12-17T15:43:57;2;2;
37290;PMS5003;23175;-33.706;151.094;2022-12-17T15:46:27;0;0;
37290;PMS5003;23175;-33.706;151.094;2022-12-17T15:48:57;2;1;
37290;PMS5003;23175;-33.706;151.094;2022-12-17T15:51:28;0;0;
37290;PMS5003;23175;-33.706;151.094;2022-12-17T15:53:58;1;1;
37290;PMS5003;23175;-33.706;151.094;2022-12-17T15:56:28;2;0;
37290;PMS5003;23175;-33.706;151.094;2022-12-17T15:58:59;1;0;
37290;PMS5003;23175;-33.706;151.094;2022-12-17T16:01:30;2;2;
37290;PMS5003;23175;-33.706;151.094;2022-12-17T16:04:00;1;1;
37290;PMS5003;23175;-33.706;151.094;2022-12-17T16:06:31;1;0;
37290;PMS5003;23175;-33.706;151.094;2022-12-17T16:09:01;1;1;
37290;PMS5003;23175;-33.706;151.094;2022-12-17T16:11:31;0;0;
37290;PMS5003;23175;-33.706;151.094;2022-12-17T16:14:02;2;1;
37290;PMS5003;23175;-33.706;151.094;2022-12-17T16:16:32;3;1;
37290;PMS5003;23175;-33.706;151.094;2022-12-17T16:19:02;2;2;
37290;PMS5003;23175;-33.706;151.094;2022-12-17T16:21:33;1;1;
37290;PMS5003;23175;-33.706;151.094;2022-12-17T16:24:03;4;2;
37290;PMS5003;23175;-33.706;151.094;2022-12-17T16:26:33;3;1;
37290;PMS5003;23175;-33.706;151.094;2022-12-17T16:29:04;1;1;
37290;PMS5003;23175;-33.706;151.094;2022-12-17T16:31:34;4;1;
37290;PMS5003;23175;-33.706;151.094;2022-12-17T16:34:07;3;1;
37290;PMS5003;23175;-33.706;151.094;2022-12-17T16:36:36;0;0;